Time;durP1;ratioP1;P1;durP2;ratioP2;P2;SDS_P1;SDS_P2;PMS_P1;PMS_P2;Temp;Humidity;BMP_temperature;BMP_pressure;BME280_temperature;BME280_humidity;BME280_pressure;Samples;Min_cycle;Max_cycle;Signal;HPM_P1;HPM_P2
2023/05/22 00:02:09;;;;;;;14.40;11.90;;;18.60;99.90;;;;;;5081733;28;20391;-42
2023/05/22 00:04:35;;;;;;;12.35;11.05;;;18.60;99.90;;;;;;5070976;28;20027;-43
2023/05/22 00:07:00;;;;;;;16.17;12.32;;;18.60;99.90;;;;;;5079087;28;20699;-43
2023/05/22 00:09:26;;;;;;;16.35;12.82;;;18.60;99.90;;;;;;5079283;28;20864;-43
2023/05/22 00:11:52;;;;;;;21.25;14.25;;;18.60;99.90;;;;;;5078393;28;20152;-44
2023/05/22 00:14:17;;;;;;;19.27;15.65;;;18.60;99.90;;;;;;5081396;28;20032;-44
2023/05/22 00:16:43;;;;;;;14.52;12.43;;;18.40;99.90;;;;;;5073698;28;20912;-42
2023/05/22 00:19:12;;;;;;;13.88;12.20;;;18.30;99.90;;;;;;5082060;28;20119;-42
2023/05/22 00:21:38;;;;;;;17.40;12.43;;;18.30;99.90;;;;;;5073192;28;20046;-43
2023/05/22 00:24:04;;;;;;;14.13;11.15;;;18.30;99.90;;;;;;5080426;28;20556;-43
2023/05/22 00:26:30;;;;;;;12.60;10.95;;;18.30;99.90;;;;;;5079820;28;20051;-42
2023/05/22 00:28:56;;;;;;;18.30;12.95;;;18.40;99.90;;;;;;5080639;28;20020;-42
2023/05/22 00:31:22;;;;;;;14.30;11.98;;;18.30;99.90;;;;;;5078260;28;20423;-44
2023/05/22 00:33:47;;;;;;;15.02;10.90;;;18.30;99.90;;;;;;5075599;28;20056;-43
2023/05/22 00:36:13;;;;;;;12.75;10.38;;;18.30;99.90;;;;;;5077539;28;20829;-43
2023/05/22 00:38:47;;;;;;;14.68;11.48;;;18.20;99.90;;;;;;5080604;28;20024;-43
2023/05/22 00:41:13;;;;;;;13.38;11.38;;;18.20;99.90;;;;;;5079319;28;20024;-43
2023/05/22 00:43:39;;;;;;;14.25;11.27;;;18.10;99.90;;;;;;5080039;28;20024;-44
2023/05/22 00:46:06;;;;;;;12.73;10.55;;;18.20;99.90;;;;;;5080881;28;20058;-43
2023/05/22 00:48:31;;;;;;;14.82;11.13;;;18.10;99.90;;;;;;5080312;28;20025;-42
2023/05/22 00:50:58;;;;;;;13.43;10.70;;;18.10;99.90;;;;;;5079431;28;20039;-44
2023/05/22 00:53:27;;;;;;;13.75;11.05;;;18.00;99.90;;;;;;5072774;28;20086;-43
2023/05/22 00:55:53;;;;;;;13.65;11.60;;;18.00;99.90;;;;;;5078778;28;20438;-43
2023/05/22 00:58:20;;;;;;;14.10;11.07;;;18.00;99.90;;;;;;5079071;28;20028;-43
2023/05/22 01:00:46;;;;;;;16.83;12.48;;;17.90;99.90;;;;;;5077739;28;20024;-44
2023/05/22 01:03:13;;;;;;;13.65;11.98;;;17.90;99.90;;;;;;5081436;28;20016;-43
2023/05/22 01:05:39;;;;;;;14.77;11.70;;;17.80;99.90;;;;;;5080410;28;20816;-42
2023/05/22 01:08:06;;;;;;;12.95;10.38;;;17.80;99.90;;;;;;5082267;28;20031;-43
2023/05/22 01:10:33;;;;;;;14.48;12.52;;;17.80;99.90;;;;;;5081378;28;20073;-42
2023/05/22 01:13:22;;;;;;;16.90;12.27;;;17.80;99.90;;;;;;5080252;28;20107;-44
2023/05/22 01:16:17;;;;;;;15.30;11.35;;;17.80;99.90;;;;;;5075976;28;20436;-42
2023/05/22 01:18:51;;;;;;;13.07;10.98;;;17.80;99.90;;;;;;5084090;28;20042;-43
2023/05/22 01:21:36;;;;;;;14.18;10.75;;;17.70;99.90;;;;;;5084503;28;20153;-43
2023/05/22 01:24:29;;;;;;;14.32;10.82;;;17.70;99.90;;;;;;5084691;28;20028;-43
2023/05/22 01:27:24;;;;;;;10.73;9.52;;;17.70;99.90;;;;;;5085018;28;20046;-43
2023/05/22 01:30:10;;;;;;;11.10;9.80;;;17.70;99.90;;;;;;5085407;28;20451;-42
2023/05/22 01:32:37;;;;;;;13.32;10.95;;;17.70;99.90;;;;;;5070780;28;20843;-43
2023/05/22 01:35:07;;;;;;;13.10;10.68;;;17.70;99.90;;;;;;5077515;28;20482;-43
2023/05/22 01:37:36;;;;;;;12.55;10.70;;;17.60;99.90;;;;;;5079119;28;20793;-43
2023/05/22 01:40:02;;;;;;;14.32;11.85;;;17.60;99.90;;;;;;5083614;28;20035;-42
2023/05/22 01:42:28;;;;;;;12.85;10.55;;;17.60;99.90;;;;;;5082830;28;20032;-42
2023/05/22 01:44:54;;;;;;;13.40;10.88;;;17.60;99.90;;;;;;5084210;28;20027;-42
2023/05/22 01:47:19;;;;;;;13.63;10.23;;;17.70;99.90;;;;;;5079413;28;20063;-42
2023/05/22 01:49:46;;;;;;;10.80;9.00;;;17.60;99.90;;;;;;5081636;28;20076;-44
2023/05/22 01:52:38;;;;;;;14.02;10.70;;;17.60;99.90;;;;;;5077638;28;20020;-42
2023/05/22 01:55:26;;;;;;;12.60;9.40;;;17.50;99.90;;;;;;5081625;28;20556;-43
2023/05/22 01:58:01;;;;;;;11.60;9.23;;;17.50;99.90;;;;;;5071647;28;20021;-43
2023/05/22 02:00:28;;;;;;;13.93;9.98;;;17.40;99.90;;;;;;5079921;28;20036;-43
2023/05/22 02:03:04;;;;;;;14.48;11.18;;;17.40;99.90;;;;;;5077126;28;20085;-43
2023/05/22 02:05:34;;;;;;;16.48;11.25;;;17.30;99.90;;;;;;5083033;28;20039;-43
2023/05/22 02:08:00;;;;;;;14.30;11.05;;;17.30;99.90;;;;;;5083627;28;20044;-43
2023/05/22 02:10:28;;;;;;;12.65;10.23;;;17.30;99.90;;;;;;5079304;28;20030;-43
2023/05/22 02:12:54;;;;;;;13.38;11.32;;;17.40;99.90;;;;;;5082172;28;20040;-43
2023/05/22 02:15:20;;;;;;;11.82;10.18;;;17.40;99.90;;;;;;5068900;28;20043;-42
2023/05/22 02:17:48;;;;;;;14.38;11.13;;;17.40;99.90;;;;;;5083950;28;20082;-43
2023/05/22 02:20:14;;;;;;;15.60;11.02;;;17.50;99.90;;;;;;5082092;28;20125;-43
2023/05/22 02:22:47;;;;;;;13.98;11.80;;;17.50;99.90;;;;;;5080891;28;20413;-43
2023/05/22 02:25:13;;;;;;;14.35;10.30;;;17.50;99.90;;;;;;5082965;28;20035;-42
2023/05/22 02:27:41;;;;;;;15.55;11.82;;;17.50;99.90;;;;;;5081571;28;20135;-43
2023/05/22 02:30:07;;;;;;;13.20;10.75;;;17.50;99.90;;;;;;5081916;28;20120;-43
2023/05/22 02:32:33;;;;;;;13.20;10.80;;;17.50;99.90;;;;;;5068077;28;20066;-42
2023/05/22 02:34:58;;;;;;;14.25;11.75;;;17.50;99.90;;;;;;5071155;28;20028;-42
2023/05/22 02:37:24;;;;;;;15.55;12.45;;;17.40;99.90;;;;;;5077580;28;20119;-43
2023/05/22 02:39:50;;;;;;;15.77;11.70;;;17.40;99.90;;;;;;5083698;28;20127;-43
2023/05/22 02:42:15;;;;;;;14.05;10.85;;;17.40;99.90;;;;;;5082759;28;20098;-43
2023/05/22 02:44:41;;;;;;;14.82;11.57;;;17.40;99.90;;;;;;5077119;28;20134;-43
2023/05/22 02:47:06;;;;;;;11.93;9.90;;;17.40;99.90;;;;;;5082610;28;20139;-42
2023/05/22 02:49:32;;;;;;;12.50;10.25;;;17.40;99.90;;;;;;5071075;28;20469;-43
2023/05/22 02:52:00;;;;;;;12.73;11.32;;;17.30;99.90;;;;;;5079879;28;20027;-43
2023/05/22 02:54:26;;;;;;;13.32;11.40;;;17.30;99.90;;;;;;5079578;28;20035;-43
2023/05/22 02:56:51;;;;;;;14.23;12.07;;;17.30;99.90;;;;;;5082546;28;20923;-43
2023/05/22 02:59:17;;;;;;;15.65;11.98;;;17.20;99.90;;;;;;5080300;28;20040;-44
2023/05/22 03:01:43;;;;;;;13.90;11.45;;;17.30;99.90;;;;;;5081850;28;20095;-43
2023/05/22 03:04:08;;;;;;;14.82;11.15;;;17.30;99.90;;;;;;5082819;28;20024;-44
2023/05/22 03:06:35;;;;;;;14.02;11.65;;;17.20;99.90;;;;;;5081888;28;20031;-42
2023/05/22 03:09:04;;;;;;;14.25;11.15;;;17.20;99.90;;;;;;5084419;28;20016;-43
2023/05/22 03:11:30;;;;;;;14.73;11.77;;;17.20;99.90;;;;;;5081964;28;20031;-45
2023/05/22 03:13:56;;;;;;;19.08;12.75;;;17.10;99.90;;;;;;5083208;28;20016;-43
2023/05/22 03:16:22;;;;;;;15.23;12.23;;;17.00;99.90;;;;;;5083262;28;20039;-43
2023/05/22 03:18:49;;;;;;;13.98;11.55;;;17.00;99.90;;;;;;5081862;28;20101;-43
2023/05/22 03:21:15;;;;;;;14.48;12.15;;;16.90;99.90;;;;;;5084228;28;20028;-43
2023/05/22 03:23:40;;;;;;;15.85;12.75;;;16.90;99.90;;;;;;5082926;28;20069;-42
2023/05/22 03:26:06;;;;;;;14.57;12.13;;;16.90;99.90;;;;;;5083382;28;20109;-43
2023/05/22 03:28:31;;;;;;;13.43;11.25;;;16.90;99.90;;;;;;5081076;28;20073;-43
2023/05/22 03:30:57;;;;;;;13.07;11.40;;;16.80;99.90;;;;;;5081647;28;20115;-43
2023/05/22 03:33:22;;;;;;;16.08;12.10;;;16.80;99.90;;;;;;5076262;28;20042;-44
2023/05/22 03:35:48;;;;;;;16.02;12.18;;;16.80;99.90;;;;;;5075561;28;20024;-43
2023/05/22 03:38:14;;;;;;;14.52;11.98;;;16.90;99.90;;;;;;5081324;28;20221;-43
2023/05/22 03:40:40;;;;;;;14.43;12.45;;;16.90;99.90;;;;;;5070540;28;20045;-43
2023/05/22 03:43:05;;;;;;;13.02;11.65;;;16.80;99.90;;;;;;5080648;28;20053;-43
2023/05/22 03:45:31;;;;;;;16.40;13.13;;;16.90;99.90;;;;;;5082315;28;20035;-43
2023/05/22 03:47:56;;;;;;;14.45;10.98;;;16.80;99.90;;;;;;5080058;28;20043;-43
2023/05/22 03:50:22;;;;;;;12.43;11.13;;;16.80;99.90;;;;;;5081337;28;20024;-43
2023/05/22 03:52:48;;;;;;;12.25;10.85;;;16.80;99.90;;;;;;5081064;28;20035;-43
2023/05/22 03:55:13;;;;;;;15.20;12.35;;;16.80;99.90;;;;;;5080416;28;20044;-42
2023/05/22 03:57:39;;;;;;;15.55;12.40;;;16.70;99.90;;;;;;5082547;28;20036;-43
2023/05/22 04:00:08;;;;;;;14.75;11.65;;;16.70;99.90;;;;;;5080791;28;20016;-43
2023/05/22 04:02:37;;;;;;;15.50;11.70;;;16.60;99.90;;;;;;5067854;28;20086;-42
2023/05/22 04:05:07;;;;;;;16.00;12.80;;;16.60;99.90;;;;;;5076605;28;20807;-43
2023/05/22 04:07:32;;;;;;;13.73;11.40;;;16.60;99.90;;;;;;5067925;28;20032;-42
2023/05/22 04:09:58;;;;;;;14.93;12.07;;;16.50;99.90;;;;;;5071295;28;20054;-44
2023/05/22 04:12:23;;;;;;;15.48;11.65;;;16.50;99.90;;;;;;5063586;28;20107;-46
2023/05/22 04:14:49;;;;;;;14.00;12.27;;;16.60;99.90;;;;;;5078571;28;20103;-44
2023/05/22 04:17:14;;;;;;;15.20;11.95;;;16.60;99.90;;;;;;5082901;28;20074;-44
2023/05/22 04:19:40;;;;;;;13.00;10.38;;;16.60;99.90;;;;;;5081918;28;20028;-43
2023/05/22 04:22:05;;;;;;;13.65;11.82;;;16.60;99.90;;;;;;5079695;28;20742;-43
2023/05/22 04:24:31;;;;;;;13.98;11.77;;;16.60;99.90;;;;;;5081679;28;20788;-43
2023/05/22 04:26:59;;;;;;;13.73;11.05;;;16.60;99.90;;;;;;5081256;28;20036;-43
2023/05/22 04:29:25;;;;;;;13.93;12.23;;;16.60;99.90;;;;;;5071012;28;20388;-42
2023/05/22 04:31:53;;;;;;;13.95;11.30;;;16.60;99.90;;;;;;5080205;28;20375;-43
2023/05/22 04:34:19;;;;;;;14.60;12.30;;;16.60;99.90;;;;;;5080909;28;20039;-43
2023/05/22 04:36:45;;;;;;;13.90;11.25;;;16.70;99.90;;;;;;5074674;28;20031;-43
2023/05/22 04:39:12;;;;;;;12.98;11.05;;;16.70;99.90;;;;;;5080347;28;20024;-43
2023/05/22 04:41:39;;;;;;;16.85;14.05;;;16.70;99.90;;;;;;5073343;28;20032;-43
2023/05/22 04:44:05;;;;;;;14.23;12.68;;;16.60;99.90;;;;;;5075683;28;20021;-42
2023/05/22 04:46:33;;;;;;;13.93;12.43;;;16.50;99.90;;;;;;5070223;28;20028;-42
2023/05/22 04:49:00;;;;;;;11.82;10.63;;;16.40;99.90;;;;;;5073370;28;20127;-43
2023/05/22 04:51:27;;;;;;;11.57;10.38;;;16.40;99.90;;;;;;5079463;28;20028;-43
2023/05/22 04:53:54;;;;;;;11.95;10.40;;;16.40;99.90;;;;;;5086325;28;20028;-43
2023/05/22 04:56:23;;;;;;;13.10;10.82;;;16.50;99.90;;;;;;5083452;28;20044;-42
2023/05/22 04:58:49;;;;;;;11.82;10.68;;;16.50;99.90;;;;;;5084375;28;20486;-42
2023/05/22 05:01:18;;;;;;;11.82;10.63;;;16.50;99.90;;;;;;5085744;28;20025;-43
2023/05/22 05:03:44;;;;;;;12.13;10.85;;;16.50;99.90;;;;;;5085286;28;20023;-43
2023/05/22 05:06:11;;;;;;;10.65;9.63;;;16.60;99.90;;;;;;5085003;28;20025;-43
2023/05/22 05:08:37;;;;;;;10.13;9.05;;;16.60;99.90;;;;;;5085777;28;20028;-43
2023/05/22 05:11:02;;;;;;;9.88;8.88;;;16.60;99.90;;;;;;5084865;28;20023;-43
2023/05/22 05:13:28;;;;;;;12.65;11.45;;;16.50;99.90;;;;;;5084824;28;20558;-44
2023/05/22 05:15:54;;;;;;;14.68;13.27;;;16.50;99.90;;;;;;5085598;28;20035;-43
2023/05/22 05:18:20;;;;;;;14.00;12.60;;;16.50;99.90;;;;;;5084718;28;20352;-44
2023/05/22 05:20:45;;;;;;;12.90;11.55;;;16.30;99.90;;;;;;5084027;28;20073;-42
2023/05/22 05:23:14;;;;;;;15.15;13.75;;;16.30;99.90;;;;;;5085870;28;20047;-43
2023/05/22 05:25:43;;;;;;;17.15;15.45;;;16.20;99.90;;;;;;5085109;28;20111;-42
2023/05/22 05:28:10;;;;;;;15.90;14.40;;;16.10;99.90;;;;;;5085412;28;20039;-43
2023/05/22 05:30:39;;;;;;;16.27;14.68;;;16.00;99.90;;;;;;5084726;28;20840;-44
2023/05/22 05:33:08;;;;;;;15.52;14.02;;;15.90;99.90;;;;;;5082566;28;20402;-43
2023/05/22 05:35:34;;;;;;;11.73;10.50;;;15.90;99.90;;;;;;5081110;28;20500;-43
2023/05/22 05:38:02;;;;;;;13.75;12.45;;;15.90;99.90;;;;;;5085090;28;20111;-43
2023/05/22 05:40:28;;;;;;;13.40;12.00;;;16.00;99.90;;;;;;5082873;28;20040;-44
2023/05/22 05:42:53;;;;;;;18.08;13.07;;;16.00;99.90;;;;;;5083633;28;20024;-42
2023/05/22 05:45:21;;;;;;;17.77;14.80;;;16.10;99.90;;;;;;5080925;28;20036;-44
2023/05/22 05:47:47;;;;;;;16.20;14.43;;;16.10;99.90;;;;;;5081742;28;20043;-44
2023/05/22 05:50:14;;;;;;;13.45;12.15;;;16.10;99.90;;;;;;5072892;28;20517;-44
2023/05/22 05:52:39;;;;;;;15.07;13.02;;;16.20;99.90;;;;;;5078583;28;20047;-43
2023/05/22 05:55:08;;;;;;;17.20;15.48;;;16.30;99.90;;;;;;5076818;28;20646;-43
2023/05/22 05:57:34;;;;;;;16.98;15.18;;;16.30;99.90;;;;;;5080031;28;20102;-43
2023/05/22 06:00:00;;;;;;;15.85;14.23;;;16.30;99.90;;;;;;5081839;28;20369;-42
2023/05/22 06:02:26;;;;;;;15.85;14.02;;;16.40;99.90;;;;;;5079651;28;20020;-43
2023/05/22 06:04:52;;;;;;;14.70;13.20;;;16.40;99.90;;;;;;5083039;28;20797;-43
2023/05/22 06:07:18;;;;;;;15.88;14.23;;;16.40;99.90;;;;;;5065569;28;20093;-43
2023/05/22 06:09:43;;;;;;;14.18;12.70;;;16.40;99.90;;;;;;5081556;28;20024;-43
2023/05/22 06:12:11;;;;;;;12.18;10.88;;;16.50;99.90;;;;;;5072188;28;20021;-43
2023/05/22 06:14:38;;;;;;;12.15;10.85;;;16.60;99.90;;;;;;5073711;28;20078;-43
2023/05/22 06:17:05;;;;;;;12.07;10.88;;;16.70;99.90;;;;;;5082183;28;20487;-43
2023/05/22 06:19:30;;;;;;;11.85;10.75;;;16.90;99.90;;;;;;5081202;28;20039;-43
2023/05/22 06:21:56;;;;;;;11.45;10.05;;;17.00;99.90;;;;;;5072428;28;20025;-43
2023/05/22 06:24:22;;;;;;;12.30;11.10;;;17.20;99.90;;;;;;5072575;28;20029;-42
2023/05/22 06:26:47;;;;;;;11.60;10.48;;;17.30;99.90;;;;;;5080234;28;20043;-43
2023/05/22 06:29:13;;;;;;;12.57;11.27;;;17.40;99.90;;;;;;5082300;28;20055;-43
2023/05/22 06:31:38;;;;;;;11.63;10.38;;;17.50;99.90;;;;;;5083268;28;20451;-42
2023/05/22 06:34:04;;;;;;;13.68;12.30;;;17.50;99.90;;;;;;5083727;28;20030;-43
2023/05/22 06:36:30;;;;;;;11.95;10.75;;;17.60;99.90;;;;;;5082628;28;20026;-42
2023/05/22 06:38:56;;;;;;;11.93;10.70;;;17.70;99.90;;;;;;5081389;28;20032;-43
2023/05/22 06:41:21;;;;;;;12.45;11.15;;;17.80;99.90;;;;;;5082071;28;20067;-43
2023/05/22 06:43:47;;;;;;;16.63;14.70;;;17.80;99.90;;;;;;5085404;28;20437;-44
2023/05/22 06:46:12;;;;;;;15.60;14.10;;;17.70;99.90;;;;;;5079496;28;20058;-42
2023/05/22 06:48:38;;;;;;;13.95;12.00;;;17.60;99.90;;;;;;5083146;28;20414;-43
2023/05/22 06:51:03;;;;;;;12.30;11.07;;;17.60;99.90;;;;;;5089835;28;20016;-42
2023/05/22 06:53:29;;;;;;;11.23;10.13;;;17.60;99.90;;;;;;5081799;28;20714;-45
2023/05/22 06:55:55;;;;;;;10.55;9.45;;;17.70;99.90;;;;;;5083348;28;20557;-43
2023/05/22 06:58:21;;;;;;;14.65;12.93;;;17.80;99.90;;;;;;5096637;28;20028;-43
2023/05/22 07:00:46;;;;;;;12.27;11.07;;;17.80;99.90;;;;;;5086370;28;20027;-41
2023/05/22 07:03:12;;;;;;;11.45;10.25;;;17.90;99.90;;;;;;5081622;28;20035;-42
2023/05/22 07:05:40;;;;;;;11.05;9.85;;;18.00;99.90;;;;;;5080519;28;20024;-44
2023/05/22 07:08:07;;;;;;;11.80;10.60;;;18.00;99.90;;;;;;5082935;28;20080;-42
2023/05/22 07:10:32;;;;;;;11.77;10.57;;;18.20;99.90;;;;;;5081430;28;20429;-43
2023/05/22 07:12:58;;;;;;;10.98;9.88;;;18.20;99.90;;;;;;5082669;28;20485;-42
2023/05/22 07:15:23;;;;;;;11.88;10.40;;;18.30;99.90;;;;;;5083013;28;20024;-44
2023/05/22 07:17:49;;;;;;;11.70;10.50;;;18.40;99.90;;;;;;5081999;28;20032;-43
2023/05/22 07:20:15;;;;;;;10.27;9.27;;;18.40;99.90;;;;;;5082980;28;20020;-43
2023/05/22 07:22:41;;;;;;;10.48;9.48;;;18.50;99.90;;;;;;5082144;28;20082;-42
2023/05/22 07:25:07;;;;;;;10.80;9.52;;;18.60;99.90;;;;;;5082351;28;20543;-43
2023/05/22 07:27:33;;;;;;;10.70;9.60;;;18.60;99.90;;;;;;5081643;28;20436;-43
2023/05/22 07:29:58;;;;;;;10.68;9.57;;;18.70;99.90;;;;;;5082478;28;20165;-42
2023/05/22 07:32:26;;;;;;;11.27;10.18;;;18.80;99.90;;;;;;5081024;28;20031;-42
2023/05/22 07:34:52;;;;;;;11.23;10.05;;;18.90;99.90;;;;;;5082991;28;20116;-43
2023/05/22 07:37:17;;;;;;;10.10;9.20;;;19.00;99.90;;;;;;5081298;28;20467;-41
2023/05/22 07:39:45;;;;;;;9.90;9.00;;;19.10;99.90;;;;;;5082672;28;20024;-43
2023/05/22 07:42:13;;;;;;;10.23;9.20;;;19.20;99.90;;;;;;5082688;28;20418;-43
2023/05/22 07:44:39;;;;;;;9.70;8.80;;;19.30;99.90;;;;;;5082481;28;20097;-43
2023/05/22 07:47:04;;;;;;;9.73;8.77;;;19.30;99.90;;;;;;5081233;28;20032;-41
2023/05/22 07:49:30;;;;;;;11.80;10.60;;;19.50;99.90;;;;;;5081935;28;20026;-43
2023/05/22 07:51:56;;;;;;;10.57;9.50;;;19.50;99.90;;;;;;5082236;28;20032;-43
2023/05/22 07:54:21;;;;;;;12.43;11.13;;;19.60;99.90;;;;;;5081658;28;20031;-42
2023/05/22 07:56:50;;;;;;;10.98;9.55;;;19.70;99.90;;;;;;5082214;28;20056;-43
2023/05/22 07:59:18;;;;;;;11.88;10.30;;;19.70;99.90;;;;;;5082003;28;20491;-42
2023/05/22 08:01:43;;;;;;;9.93;8.93;;;19.80;99.90;;;;;;5080437;28;20023;-40
2023/05/22 08:04:09;;;;;;;10.93;9.82;;;19.90;99.90;;;;;;5080381;28;20028;-32
2023/05/22 08:06:35;;;;;;;11.48;10.27;;;20.00;99.90;;;;;;5080707;28;20024;-33
2023/05/22 08:09:03;;;;;;;11.20;10.10;;;20.00;99.90;;;;;;5080174;28;20028;-33
2023/05/22 08:11:29;;;;;;;10.07;9.07;;;20.10;99.90;;;;;;5079167;28;20036;-34
2023/05/22 08:13:55;;;;;;;10.93;9.82;;;20.20;99.90;;;;;;5080895;28;20085;-33
2023/05/22 08:16:21;;;;;;;11.40;9.70;;;20.30;99.90;;;;;;5081195;28;20519;-34
2023/05/22 08:18:46;;;;;;;11.85;10.40;;;20.40;99.90;;;;;;5081864;28;20035;-35
2023/05/22 08:21:12;;;;;;;11.57;10.38;;;20.40;99.90;;;;;;5081693;28;20493;-33
2023/05/22 08:23:37;;;;;;;11.13;10.02;;;20.50;99.90;;;;;;5078697;28;20032;-33
2023/05/22 08:26:03;;;;;;;10.57;9.48;;;20.50;99.90;;;;;;5080907;28;20031;-34
2023/05/22 08:28:29;;;;;;;9.98;8.95;;;20.60;99.90;;;;;;5080598;28;20040;-33
2023/05/22 08:30:55;;;;;;;10.02;9.13;;;20.60;99.90;;;;;;5080897;28;20039;-34
2023/05/22 08:33:20;;;;;;;11.40;10.20;;;20.60;99.90;;;;;;5081980;28;20554;-33
2023/05/22 08:35:46;;;;;;;13.93;11.38;;;20.70;99.90;;;;;;5079966;28;20479;-34
2023/05/22 08:38:11;;;;;;;13.32;10.52;;;20.70;99.90;;;;;;5081793;28;20071;-33
2023/05/22 08:40:38;;;;;;;11.55;10.27;;;20.80;99.90;;;;;;5081599;28;20127;-33
2023/05/22 08:43:05;;;;;;;11.60;9.27;;;20.80;99.90;;;;;;5081377;28;20022;-34
2023/05/22 08:45:33;;;;;;;10.90;9.88;;;20.90;99.90;;;;;;5081106;28;20767;-33
2023/05/22 08:48:06;;;;;;;11.05;9.85;;;20.90;99.90;;;;;;5081964;28;20407;-34
2023/05/22 08:50:36;;;;;;;11.00;9.90;;;21.00;99.90;;;;;;5081036;28;20106;-33
2023/05/22 08:53:04;;;;;;;10.85;9.80;;;21.00;99.90;;;;;;5081702;28;20036;-35
2023/05/22 08:55:30;;;;;;;12.20;10.85;;;21.10;99.90;;;;;;5081270;28;20866;-33
2023/05/22 08:57:56;;;;;;;10.25;9.30;;;21.10;99.90;;;;;;5080438;28;20044;-33
2023/05/22 09:00:22;;;;;;;10.18;9.23;;;21.20;99.90;;;;;;5080301;28;20471;-33
2023/05/22 09:02:48;;;;;;;10.07;9.07;;;21.30;99.90;;;;;;5082167;28;20020;-34
2023/05/22 09:05:18;;;;;;;9.63;8.68;;;21.30;99.90;;;;;;5080042;28;20024;-33
2023/05/22 09:07:44;;;;;;;11.73;10.57;;;21.40;99.90;;;;;;5080764;28;20543;-34
2023/05/22 09:10:10;;;;;;;11.32;10.27;;;21.50;99.90;;;;;;5080172;28;20362;-34
2023/05/22 09:12:35;;;;;;;13.75;12.35;;;21.60;99.90;;;;;;5079597;28;20477;-35
2023/05/22 09:15:15;;;;;;;12.52;11.23;;;21.60;99.90;;;;;;5080212;28;20558;-34
2023/05/22 09:17:40;;;;;;;10.75;9.65;;;21.70;99.90;;;;;;5079424;28;20035;-33
2023/05/22 09:20:14;;;;;;;9.32;8.43;;;21.90;99.90;;;;;;5080383;28;20016;-33
2023/05/22 09:22:42;;;;;;;10.52;9.18;;;22.10;99.90;;;;;;5080578;28;20024;-36
2023/05/22 09:25:08;;;;;;;10.00;9.00;;;22.20;99.90;;;;;;5080191;28;20035;-35
2023/05/22 09:27:34;;;;;;;10.38;9.40;;;22.40;99.90;;;;;;5081077;28;20032;-33
2023/05/22 09:29:59;;;;;;;8.98;8.18;;;22.40;99.90;;;;;;5081696;28;20020;-35
2023/05/22 09:32:29;;;;;;;9.40;8.48;;;22.50;99.90;;;;;;5080510;28;20027;-33
2023/05/22 09:35:01;;;;;;;8.63;7.68;;;22.50;99.90;;;;;;5082312;28;20035;-34
2023/05/22 09:37:31;;;;;;;8.40;7.70;;;22.60;99.90;;;;;;5084278;28;20046;-34
2023/05/22 09:39:57;;;;;;;7.53;6.82;;;22.70;99.90;;;;;;5084653;28;20130;-34
2023/05/22 09:42:23;;;;;;;8.20;7.47;;;22.80;99.90;;;;;;5074083;28;20111;-34
2023/05/22 09:44:49;;;;;;;8.60;7.78;;;22.90;99.90;;;;;;5085210;28;20088;-34
2023/05/22 09:47:15;;;;;;;8.13;7.43;;;23.00;99.90;;;;;;5084597;28;20829;-40
2023/05/22 09:49:42;;;;;;;8.32;7.53;;;23.00;99.90;;;;;;5084288;28;20514;-34
2023/05/22 09:52:11;;;;;;;6.68;6.18;;;23.10;99.90;;;;;;5084072;28;20016;-33
2023/05/22 09:54:48;;;;;;;7.43;6.72;;;23.20;99.90;;;;;;5083040;28;20550;-34
2023/05/22 09:57:17;;;;;;;7.35;6.60;;;23.30;99.90;;;;;;5084558;28;20153;-35
2023/05/22 09:59:46;;;;;;;8.93;8.13;;;23.40;99.90;;;;;;5083430;28;20082;-34
2023/05/22 10:02:15;;;;;;;8.75;7.95;;;23.40;99.90;;;;;;5084581;28;20024;-35
2023/05/22 10:04:42;;;;;;;8.52;7.72;;;23.30;99.90;;;;;;5084350;28;20058;-35
2023/05/22 10:07:10;;;;;;;8.77;7.97;;;23.30;99.90;;;;;;5083713;28;20046;-35
2023/05/22 10:09:39;;;;;;;7.97;7.20;;;23.30;99.90;;;;;;5085059;28;20101;-33
2023/05/22 10:12:06;;;;;;;8.38;7.68;;;23.30;99.90;;;;;;5084675;28;20081;-33
2023/05/22 10:14:34;;;;;;;7.53;6.82;;;23.40;99.90;;;;;;5083399;28;20031;-33
2023/05/22 10:17:03;;;;;;;7.75;6.85;;;23.40;99.90;;;;;;5084694;28;20050;-34
2023/05/22 10:19:31;;;;;;;7.85;7.15;;;23.40;99.90;;;;;;5082418;28;20047;-34
2023/05/22 10:21:59;;;;;;;8.10;7.28;;;23.50;99.90;;;;;;5082071;28;20036;-33
2023/05/22 10:24:25;;;;;;;7.50;6.90;;;23.60;99.90;;;;;;5082026;28;20056;-34
2023/05/22 10:26:53;;;;;;;6.97;6.38;;;23.80;99.90;;;;;;5083017;28;20114;-34
2023/05/22 10:29:43;;;;;;;8.82;8.02;;;23.90;99.90;;;;;;5083226;28;20085;-34
2023/05/22 10:32:20;;;;;;;8.07;7.38;;;24.00;99.90;;;;;;5083340;28;20048;-35
2023/05/22 10:34:49;;;;;;;6.97;6.28;;;24.00;99.90;;;;;;5082638;28;20052;-34
2023/05/22 10:37:29;;;;;;;7.95;7.18;;;24.00;99.90;;;;;;5083525;28;20032;-35
2023/05/22 10:40:08;;;;;;;7.13;6.43;;;24.10;99.90;;;;;;5084537;28;20036;-35
2023/05/22 10:42:40;;;;;;;8.05;7.25;;;24.10;99.90;;;;;;5081940;28;20031;-34
2023/05/22 10:45:06;;;;;;;7.35;6.30;;;24.10;99.90;;;;;;5084095;28;20027;-33
2023/05/22 10:47:32;;;;;;;7.07;6.30;;;24.20;99.90;;;;;;5081440;28;20043;-33
2023/05/22 10:50:09;;;;;;;7.00;6.38;;;24.30;99.90;;;;;;5082132;28;20027;-35
2023/05/22 10:52:35;;;;;;;7.65;6.85;;;24.40;99.90;;;;;;5082952;28;20115;-34
2023/05/22 10:55:08;;;;;;;7.13;6.43;;;24.50;99.90;;;;;;5083725;28;20031;-35
2023/05/22 10:57:38;;;;;;;7.57;6.78;;;24.60;99.90;;;;;;5082456;28;20122;-34
2023/05/22 11:00:08;;;;;;;7.07;6.50;;;24.70;99.90;;;;;;5083911;28;20031;-35
2023/05/22 11:02:38;;;;;;;8.43;7.60;;;24.90;99.90;;;;;;5081910;28;20030;-35
2023/05/22 11:05:25;;;;;;;8.73;7.93;;;24.90;99.90;;;;;;5083394;28;20816;-34
2023/05/22 11:07:51;;;;;;;7.55;6.85;;;24.90;99.90;;;;;;5082924;28;20063;-34
2023/05/22 11:10:26;;;;;;;6.80;6.20;;;24.90;99.90;;;;;;5082596;28;20131;-34
2023/05/22 11:13:10;;;;;;;7.45;6.75;;;24.90;99.90;;;;;;5083028;28;20031;-35
2023/05/22 11:15:35;;;;;;;7.95;7.18;;;24.90;99.90;;;;;;5073064;28;20028;-34
2023/05/22 11:18:02;;;;;;;9.43;6.70;;;24.90;99.90;;;;;;5082895;28;20533;-34
2023/05/22 11:20:29;;;;;;;8.30;7.30;;;25.00;99.90;;;;;;5083086;28;20044;-34
2023/05/22 11:23:08;;;;;;;8.75;7.95;;;25.10;99.90;;;;;;5083358;28;20085;-34
2023/05/22 11:25:36;;;;;;;8.77;7.60;;;25.20;99.90;;;;;;5079713;28;20040;-34
2023/05/22 11:28:04;;;;;;;8.00;7.30;;;25.40;99.90;;;;;;5081204;28;20040;-34
2023/05/22 11:30:33;;;;;;;10.25;9.18;;;25.50;99.90;;;;;;5080983;28;20021;-33
2023/05/22 11:32:59;;;;;;;8.60;7.75;;;25.60;99.90;;;;;;5080134;28;20125;-35
2023/05/22 11:35:25;;;;;;;11.18;8.32;;;25.60;99.90;;;;;;5084633;28;20023;-35
2023/05/22 11:37:53;;;;;;;10.27;8.52;;;25.60;99.90;;;;;;5081991;28;20032;-33
2023/05/22 11:40:20;;;;;;;9.73;7.70;;;25.60;99.90;;;;;;5082671;28;20097;-34
2023/05/22 11:42:46;;;;;;;9.77;8.88;;;25.50;99.90;;;;;;5082351;28;20104;-35
2023/05/22 11:45:13;;;;;;;11.25;10.15;;;25.40;99.90;;;;;;5082412;28;20012;-34
2023/05/22 11:47:38;;;;;;;10.18;9.18;;;25.30;99.90;;;;;;5082426;28;20542;-33
2023/05/22 11:50:07;;;;;;;9.68;8.73;;;25.10;99.90;;;;;;5081694;28;20066;-34
2023/05/22 11:52:34;;;;;;;9.40;8.50;;;25.00;99.90;;;;;;5081485;28;20035;-35
2023/05/22 11:55:00;;;;;;;8.55;7.78;;;25.00;99.90;;;;;;5081436;28;20657;-34
2023/05/22 11:57:26;;;;;;;8.55;7.75;;;25.10;99.90;;;;;;5082274;28;20028;-33
2023/05/22 11:59:52;;;;;;;8.88;8.07;;;25.10;99.90;;;;;;5081872;28;20027;-34
2023/05/22 12:02:18;;;;;;;8.75;7.85;;;25.30;99.90;;;;;;5082050;28;20032;-34
2023/05/22 12:04:44;;;;;;;8.48;7.78;;;25.40;99.90;;;;;;5082187;28;20012;-35
2023/05/22 12:07:10;;;;;;;8.50;7.70;;;25.50;99.90;;;;;;5082226;28;20039;-34
2023/05/22 12:09:38;;;;;;;8.85;8.05;;;25.50;99.90;;;;;;5080834;28;20020;-35
2023/05/22 12:12:04;;;;;;;7.90;7.20;;;25.50;99.90;;;;;;5082127;28;20062;-33
2023/05/22 12:14:30;;;;;;;8.80;8.00;;;25.50;99.90;;;;;;5081351;28;20020;-35
2023/05/22 12:17:03;;;;;;;9.65;8.75;;;25.40;99.90;;;;;;5082398;28;20720;-35
2023/05/22 12:19:29;;;;;;;8.32;7.63;;;25.30;99.90;;;;;;5081520;28;20036;-33
2023/05/22 12:21:54;;;;;;;8.30;7.60;;;25.30;99.90;;;;;;5081210;28;20031;-34
2023/05/22 12:24:22;;;;;;;9.25;8.35;;;25.30;99.90;;;;;;5081426;28;20061;-35
2023/05/22 12:26:55;;;;;;;9.50;8.52;;;25.20;99.90;;;;;;5081216;28;20228;-34
2023/05/22 12:29:24;;;;;;;9.27;8.23;;;25.20;99.90;;;;;;5061684;28;20025;-33
2023/05/22 12:31:52;;;;;;;8.77;7.93;;;25.20;99.90;;;;;;5077278;28;20501;-35
2023/05/22 12:34:22;;;;;;;9.02;8.18;;;25.30;99.90;;;;;;5080788;28;20032;-34
2023/05/22 12:36:48;;;;;;;8.18;7.43;;;25.50;99.90;;;;;;5080304;28;20052;-34